Scappoose, OR (97056)

08:43 PDT le 22 août 2014 (GMT -0700)
Scappoose Industrial | Change Station
CLOSE
Current Station
Aéroport
Location: Scappoose,
Altitude: 56 ft
Stations météo à proximité

Alt. 56 ft 45.77 °N, 122.86 °W | Updated 50 minutes ago

Mostly Cloudy
Nuageux
62 ° F
Paraît 62 ° F
N
6
Vent Variable Vent de NNE

Aujourd'hui
Haut(e) -- | Bas -- ° F
--% Risque de précip.
Hier
Haut(e) -- | Bas -- ° F
Precip. -- pouce
6:20 AM 8:07 PM
Lune descendante, 8% visible
Pression 30.03 pouce
Visibilité 10.0 Miles terrestres
Nuages Nuageux 1700 ft
Point de rosée 55 ° F
Humidité 78%
Précipitations 0.00 pouce
Profondeur de la couche neigeuse Non disponible.
UV 1 sur 12
Pollen 3.50 sur 12
Qualité de l'air Non disponible.
Flu Activity Non disponible.
METAR KSPB 221453Z AUTO 02005KT 10SM BKN017 17/13 A3003 RMK AO2 SLP167 T01670128 53015

More Conditions Fewer Conditions

Pression 30.03 pouce
Visibilité 10.0 Miles terrestres
Nuages Nuageux 1700 ft
Point de rosée 55 ° F
Humidité 78%
Précipitations 0.00 pouce
Profondeur de la couche neigeuse Non disponible.
UV 1 sur 12
Pollen 3.50 sur 12
Qualité de l'air Non disponible.
Flu Activity Non disponible.
METAR KSPB 221453Z AUTO 02005KT 10SM BKN017 17/13 A3003 RMK AO2 SLP167 T01670128 53015

More Conditions Fewer Conditions

10-Day Weather Forecast

Almanac

Astronomie

Aug. 22, 2014 Lever Coucher
Temps réel 06:20 PDT 20:07 PDT
Crépuscule civil 05:48 PDT 20:39 PDT
Crépuscule nautique 05:10 PDT 21:17 PDT
Crépuscule astronomique 04:27 PDT 21:59 PDT
Lune 03:44 PDT 18:22 PDT
Durée de lumière visible 14h 50m
Longueur du jour
13h 47m
Tomorrow will be 3m 0s shorter.
Lune descendante, 8% of the Moon is Illuminated
Aujourd'hui
Lune descendante
août 25
Nouveau
Sep 2
Premier quartier
Sep 8
Pleine lune
Sep 15
Dernier quartier

Extrêmes aujourd'hui

State Highs State Lows

Community

WunderPhotos

Upload Photos

1,746,188 Photos téléchargées !

Nearby

Épaisseur de neige

Station Depth Altitude
Seine Creek 0 in 2000 ft
North Fork 1 in 3120 ft
Blazed Alder 0 in 3650 ft
Greenpoint 1 in 3200 ft
Red Hill 0 in 4400 ft

Activité sismique

Ville Distance Mag. Time & Date
No recent earthquake activity has been reported nearby.
Minimum magnitude displayed is 2.5.

Températures des eaux côtières

Lieu Température
Aucun rapport de station

Stations météo à proximité